createdAt,value
2023-03-16T00:00:19.498Z,96352
2023-03-16T00:01:19.455Z,96354
2023-03-16T00:02:19.707Z,96350
2023-03-16T00:03:19.627Z,96351
2023-03-16T00:04:19.467Z,96352
2023-03-16T00:05:19.506Z,96351
2023-03-16T00:06:19.477Z,96350
2023-03-16T00:07:19.517Z,96348
2023-03-16T00:08:19.509Z,96350
2023-03-16T00:10:19.556Z,96350
2023-03-16T00:11:19.473Z,96349
2023-03-16T00:12:19.553Z,96349
2023-03-16T00:13:19.514Z,96348
2023-03-16T00:14:19.516Z,96348
2023-03-16T00:15:19.562Z,96345
2023-03-16T00:16:19.536Z,96348
2023-03-16T00:17:19.734Z,96344
2023-03-16T00:18:19.557Z,96348
2023-03-16T00:19:19.525Z,96352
2023-03-16T00:20:19.534Z,96348
2023-03-16T00:22:19.522Z,96349
2023-03-16T00:23:19.505Z,96347
2023-03-16T00:24:19.541Z,96354
2023-03-16T00:26:19.513Z,96347
2023-03-16T00:27:19.538Z,96345
2023-03-16T00:28:19.528Z,96347
2023-03-16T00:29:19.533Z,96346
2023-03-16T00:31:19.572Z,96345
2023-03-16T00:32:19.550Z,96349
2023-03-16T00:33:19.582Z,96350
2023-03-16T00:34:19.579Z,96347
2023-03-16T00:35:19.540Z,96344
2023-03-16T00:36:19.585Z,96340
2023-03-16T00:37:19.644Z,96340
2023-03-16T00:39:19.532Z,96340
2023-03-16T00:41:19.584Z,96343
2023-03-16T00:42:19.582Z,96343
2023-03-16T00:43:19.587Z,96337
2023-03-16T00:44:19.584Z,96341
2023-03-16T00:45:19.633Z,96338
2023-03-16T00:46:19.676Z,96335
2023-03-16T00:47:19.572Z,96338
2023-03-16T00:48:19.569Z,96340
2023-03-16T00:50:19.604Z,96336
2023-03-16T00:51:19.650Z,96337
2023-03-16T00:53:19.571Z,96337
2023-03-16T00:56:19.623Z,96332
2023-03-16T00:57:19.623Z,96335
2023-03-16T00:58:19.626Z,96328
2023-03-16T00:59:19.630Z,96336
2023-03-16T01:00:19.630Z,96333
2023-03-16T01:01:19.689Z,96334
2023-03-16T01:02:19.587Z,96328
2023-03-16T01:03:19.691Z,96330
2023-03-16T01:04:19.692Z,96332
2023-03-16T01:05:19.599Z,96331
2023-03-16T01:06:19.617Z,96330
2023-03-16T01:08:19.615Z,96322
2023-03-16T01:09:19.608Z,96322
2023-03-16T01:10:19.647Z,96318
2023-03-16T01:11:19.603Z,96318
2023-03-16T01:14:19.624Z,96310
2023-03-16T01:15:19.711Z,96310
2023-03-16T01:16:19.730Z,96309
2023-03-16T01:17:19.628Z,96304
2023-03-16T01:19:19.678Z,96306
2023-03-16T01:20:19.712Z,96308
2023-03-16T01:21:19.659Z,96306
2023-03-16T01:22:19.686Z,96308
2023-03-16T01:23:19.676Z,96308
2023-03-16T01:24:19.672Z,96308
2023-03-16T01:25:19.712Z,96309
2023-03-16T01:26:19.669Z,96310
2023-03-16T01:27:19.660Z,96307
2023-03-16T01:28:19.695Z,96309
2023-03-16T01:29:19.652Z,96311
2023-03-16T01:31:19.708Z,96307
2023-03-16T01:32:19.695Z,96305
2023-03-16T01:33:19.703Z,96298
2023-03-16T01:34:19.670Z,96299
2023-03-16T01:35:19.706Z,96294
2023-03-16T01:36:19.707Z,96294
2023-03-16T01:37:19.698Z,96297
2023-03-16T01:38:19.770Z,96293
2023-03-16T01:39:19.688Z,96293
2023-03-16T01:40:19.686Z,96293
2023-03-16T01:41:19.719Z,96294
2023-03-16T01:42:19.710Z,96296
2023-03-16T01:43:19.736Z,96297
2023-03-16T01:44:19.696Z,96295
2023-03-16T01:46:19.879Z,96289
2023-03-16T01:47:19.754Z,96285
2023-03-16T01:48:19.692Z,96285
2023-03-16T01:50:19.709Z,96288
2023-03-16T01:52:19.725Z,96281
2023-03-16T01:53:19.734Z,96281
2023-03-16T01:54:19.748Z,96277
2023-03-16T01:55:19.761Z,96275
2023-03-16T01:56:19.794Z,96275
2023-03-16T01:57:19.759Z,96279
2023-03-16T01:58:19.742Z,96278
2023-03-16T02:00:19.901Z,96280
2023-03-16T02:01:19.842Z,96283
2023-03-16T02:02:19.768Z,96283
2023-03-16T02:04:19.766Z,96278
2023-03-16T02:06:19.786Z,96284
2023-03-16T02:07:19.750Z,96283
2023-03-16T02:09:19.806Z,96283
2023-03-16T02:10:19.766Z,96286
2023-03-16T02:11:19.765Z,96284
2023-03-16T02:12:19.759Z,96288
2023-03-16T02:13:19.757Z,96291
2023-03-16T02:16:19.995Z,96292
2023-03-16T02:17:19.804Z,96293
2023-03-16T02:18:19.775Z,96293
2023-03-16T02:19:19.822Z,96287
2023-03-16T02:20:19.789Z,96284
2023-03-16T02:22:19.802Z,96282
2023-03-16T02:23:19.815Z,96282
2023-03-16T02:24:19.860Z,96283
2023-03-16T02:25:19.828Z,96281
2023-03-16T02:27:19.840Z,96284
2023-03-16T02:28:19.821Z,96285
2023-03-16T02:29:19.879Z,96282
2023-03-16T02:30:19.850Z,96283
2023-03-16T02:31:19.910Z,96283
2023-03-16T02:32:19.824Z,96281
2023-03-16T02:34:20.022Z,96281
2023-03-16T02:36:19.864Z,96283
2023-03-16T02:37:19.859Z,96280
2023-03-16T02:38:19.825Z,96281
2023-03-16T02:39:19.810Z,96281
2023-03-16T02:40:19.834Z,96279
2023-03-16T02:42:19.896Z,96279
2023-03-16T02:43:19.834Z,96276
2023-03-16T02:44:19.893Z,96274
2023-03-16T02:45:19.843Z,96277
2023-03-16T02:46:19.878Z,96277
2023-03-16T02:49:19.845Z,96272
2023-03-16T02:51:19.865Z,96271
2023-03-16T02:52:19.909Z,96271
2023-03-16T02:54:19.865Z,96270
2023-03-16T02:56:19.881Z,96270
2023-03-16T02:57:19.903Z,96274
2023-03-16T02:58:19.864Z,96275
2023-03-16T02:59:19.874Z,96272
2023-03-16T03:00:19.890Z,96274
2023-03-16T03:01:19.871Z,96274
2023-03-16T03:02:19.973Z,96273
2023-03-16T03:03:19.979Z,96272
2023-03-16T03:06:19.907Z,96274
2023-03-16T03:07:19.938Z,96277
2023-03-16T03:08:19.924Z,96277
2023-03-16T03:10:19.945Z,96272
2023-03-16T03:11:19.946Z,96276
2023-03-16T03:12:20.005Z,96276
2023-03-16T03:13:19.900Z,96276
2023-03-16T03:14:19.904Z,96277
2023-03-16T03:16:19.973Z,96277
2023-03-16T03:18:19.959Z,96274
2023-03-16T03:19:19.915Z,96277
2023-03-16T03:20:19.984Z,96277
2023-03-16T03:25:19.953Z,96275
2023-03-16T03:26:19.950Z,96270
2023-03-16T03:27:20.012Z,96270
2023-03-16T03:28:19.946Z,96268
2023-03-16T03:30:19.968Z,96266
2023-03-16T03:31:20.073Z,96265
2023-03-16T03:32:19.996Z,96265
2023-03-16T03:33:19.952Z,96264
2023-03-16T03:34:19.958Z,96268
2023-03-16T03:36:20.016Z,96266
2023-03-16T03:37:20.031Z,96261
2023-03-16T03:38:19.961Z,96261
2023-03-16T03:39:19.974Z,96259
2023-03-16T03:40:19.970Z,96264
2023-03-16T03:41:19.966Z,96257
2023-03-16T03:42:20.020Z,96258
2023-03-16T03:43:20.043Z,96258
2023-03-16T03:47:20.022Z,96256
2023-03-16T03:50:20.109Z,96257
2023-03-16T03:51:20.078Z,96255
2023-03-16T03:53:20.014Z,96259
2023-03-16T03:54:20.024Z,96257
2023-03-16T03:57:21.875Z,96255
2023-03-16T03:58:20.054Z,96251
2023-03-16T03:59:20.035Z,96253
2023-03-16T04:00:20.045Z,96246
2023-03-16T04:01:20.054Z,96249
2023-03-16T04:02:20.135Z,96249
2023-03-16T04:03:20.121Z,96250
2023-03-16T04:04:20.055Z,96251
2023-03-16T04:05:20.122Z,96250
2023-03-16T04:06:20.068Z,96250
2023-03-16T04:07:20.137Z,96250
2023-03-16T04:08:20.059Z,96254
2023-03-16T04:09:20.094Z,96251
2023-03-16T04:10:20.095Z,96250
2023-03-16T04:11:20.117Z,96247
2023-03-16T04:12:20.117Z,96249
2023-03-16T04:14:20.137Z,96245
2023-03-16T04:16:20.157Z,96247
2023-03-16T04:17:20.066Z,96248
2023-03-16T04:18:20.063Z,96249
2023-03-16T04:20:20.192Z,96246
2023-03-16T04:21:20.082Z,96246
2023-03-16T04:22:20.095Z,96243
2023-03-16T04:23:20.243Z,96246
2023-03-16T04:24:20.092Z,96244
2023-03-16T04:25:20.161Z,96244
2023-03-16T04:26:20.106Z,96244
2023-03-16T04:29:20.235Z,96243
2023-03-16T04:30:20.182Z,96239
2023-03-16T04:31:20.204Z,96239
2023-03-16T04:33:20.237Z,96238
2023-03-16T04:34:20.115Z,96240
2023-03-16T04:35:20.269Z,96236
2023-03-16T04:36:20.144Z,96235
2023-03-16T04:37:20.121Z,96232
2023-03-16T04:39:20.109Z,96233
2023-03-16T04:40:20.121Z,96232
2023-03-16T04:41:20.128Z,96236
2023-03-16T04:42:20.134Z,96240
2023-03-16T04:43:20.197Z,96240
2023-03-16T04:44:20.166Z,96240
2023-03-16T04:45:20.139Z,96236
2023-03-16T04:46:20.224Z,96235
2023-03-16T04:48:20.151Z,96234
2023-03-16T04:50:20.139Z,96234
2023-03-16T04:51:20.188Z,96228
2023-03-16T04:52:20.150Z,96230
2023-03-16T04:53:20.180Z,96233
2023-03-16T04:54:20.172Z,96230
2023-03-16T04:55:20.162Z,96225
2023-03-16T04:56:20.212Z,96228
2023-03-16T04:57:20.163Z,96226
2023-03-16T04:58:20.168Z,96225
2023-03-16T04:59:20.217Z,96224
2023-03-16T05:00:20.169Z,96225
2023-03-16T05:02:20.170Z,96228
2023-03-16T05:03:20.171Z,96227
2023-03-16T05:04:20.197Z,96229
2023-03-16T05:05:20.191Z,96228
2023-03-16T05:06:20.181Z,96232
2023-03-16T05:09:20.213Z,96226
2023-03-16T05:11:20.242Z,96227
2023-03-16T05:12:20.183Z,96227
2023-03-16T05:14:20.222Z,96225
2023-03-16T05:15:20.203Z,96225
2023-03-16T05:17:20.228Z,96225
2023-03-16T05:18:20.255Z,96229
2023-03-16T05:19:20.274Z,96227
2023-03-16T05:21:20.252Z,96223
2023-03-16T05:22:20.244Z,96222
2023-03-16T05:23:20.284Z,96226
2023-03-16T05:25:20.212Z,96221
2023-03-16T05:26:20.219Z,96222
2023-03-16T05:27:20.265Z,96224
2023-03-16T05:28:20.236Z,96224
2023-03-16T05:29:20.247Z,96220
2023-03-16T05:30:20.246Z,96219
2023-03-16T05:31:20.275Z,96221
2023-03-16T05:32:20.284Z,96218
2023-03-16T05:33:20.248Z,96220
2023-03-16T05:35:22.042Z,96216
2023-03-16T05:36:20.244Z,96219
2023-03-16T05:37:20.318Z,96217
2023-03-16T05:38:20.264Z,96217
2023-03-16T05:39:20.297Z,96215
2023-03-16T05:40:20.272Z,96211
2023-03-16T05:41:20.257Z,96211
2023-03-16T05:42:20.329Z,96206
2023-03-16T05:43:20.289Z,96206
2023-03-16T05:44:20.276Z,96211
2023-03-16T05:45:20.309Z,96211
2023-03-16T05:46:20.916Z,96208
2023-03-16T05:47:20.302Z,96208
2023-03-16T05:49:20.313Z,96204
2023-03-16T05:50:20.387Z,96204
2023-03-16T05:51:20.316Z,96204
2023-03-16T05:52:20.339Z,96206
2023-03-16T05:53:20.338Z,96207
2023-03-16T05:56:20.319Z,96208
2023-03-16T05:57:20.304Z,96208
2023-03-16T05:58:20.301Z,96210
2023-03-16T05:59:20.301Z,96208
2023-03-16T06:02:20.347Z,96207
2023-03-16T06:03:20.318Z,96204
2023-03-16T06:04:20.471Z,96210
2023-03-16T06:05:20.371Z,96206
2023-03-16T06:06:20.327Z,96208
2023-03-16T06:08:20.372Z,96210
2023-03-16T06:09:20.373Z,96209
2023-03-16T06:10:20.367Z,96209
2023-03-16T06:11:20.373Z,96214
2023-03-16T06:12:20.368Z,96211
2023-03-16T06:13:20.411Z,96214
2023-03-16T06:14:20.381Z,96214
2023-03-16T06:15:20.349Z,96212
2023-03-16T06:16:20.370Z,96214
2023-03-16T06:17:20.356Z,96214
2023-03-16T06:18:20.362Z,96218
2023-03-16T06:19:20.352Z,96218
2023-03-16T06:20:20.395Z,96218
2023-03-16T06:21:20.392Z,96220
2023-03-16T06:22:20.705Z,96218
2023-03-16T06:23:20.405Z,96218
2023-03-16T06:24:20.369Z,96226
2023-03-16T06:25:20.414Z,96226
2023-03-16T06:26:20.418Z,96227
2023-03-16T06:27:20.397Z,96227
2023-03-16T06:28:20.454Z,96226
2023-03-16T06:29:20.389Z,96224
2023-03-16T06:30:20.424Z,96224
2023-03-16T06:31:20.440Z,96227
2023-03-16T06:32:20.392Z,96228
2023-03-16T06:33:20.404Z,96233
2023-03-16T06:34:20.415Z,96230
2023-03-16T06:35:20.442Z,96234
2023-03-16T06:36:20.402Z,96234
2023-03-16T06:37:20.447Z,96230
2023-03-16T06:38:20.487Z,96233
2023-03-16T06:39:20.452Z,96234
2023-03-16T06:40:20.434Z,96231
2023-03-16T06:41:20.464Z,96236
2023-03-16T06:42:20.431Z,96240
2023-03-16T06:43:20.454Z,96233
2023-03-16T06:44:20.411Z,96233
2023-03-16T06:45:20.429Z,96234
2023-03-16T06:46:20.522Z,96231
2023-03-16T06:47:20.472Z,96230
2023-03-16T06:48:20.480Z,96234
2023-03-16T06:49:20.481Z,96237
2023-03-16T06:50:20.477Z,96235
2023-03-16T06:51:20.465Z,96240
2023-03-16T06:52:20.447Z,96241
2023-03-16T06:53:20.493Z,96246
2023-03-16T06:54:20.464Z,96248
2023-03-16T06:55:20.496Z,96250
2023-03-16T06:56:20.483Z,96255
2023-03-16T06:57:20.470Z,96258
2023-03-16T06:58:20.496Z,96264
2023-03-16T06:59:20.463Z,96256
2023-03-16T07:00:20.469Z,96257
2023-03-16T07:01:20.532Z,96254
2023-03-16T07:02:20.499Z,96255
2023-03-16T07:03:20.506Z,96256
2023-03-16T07:04:20.608Z,96255
2023-03-16T07:05:20.523Z,96257
2023-03-16T07:06:20.460Z,96256
2023-03-16T07:07:20.473Z,96255
2023-03-16T07:08:20.483Z,96256
2023-03-16T07:09:20.478Z,96256
2023-03-16T07:10:20.543Z,96256
2023-03-16T07:11:20.493Z,96255
2023-03-16T07:12:20.520Z,96259
2023-03-16T07:13:20.502Z,96261
2023-03-16T07:14:20.549Z,96262
2023-03-16T07:15:20.496Z,96263
2023-03-16T07:16:20.592Z,96266
2023-03-16T07:17:20.527Z,96268
2023-03-16T07:18:20.544Z,96268
2023-03-16T07:19:20.498Z,96269
2023-03-16T07:20:22.899Z,96269
2023-03-16T07:21:20.512Z,96269
2023-03-16T07:22:20.547Z,96266
2023-03-16T07:23:20.530Z,96267
2023-03-16T07:24:20.501Z,96267
2023-03-16T07:25:20.548Z,96264
2023-03-16T07:26:20.558Z,96268
2023-03-16T07:27:20.551Z,96270
2023-03-16T07:28:20.571Z,96271
2023-03-16T07:29:20.580Z,96271
2023-03-16T07:30:20.614Z,96273
2023-03-16T07:31:20.637Z,96271
2023-03-16T07:32:20.572Z,96269
2023-03-16T07:33:20.583Z,96269
2023-03-16T07:34:20.533Z,96268
2023-03-16T07:35:20.543Z,96268
2023-03-16T07:36:20.724Z,96272
2023-03-16T07:37:25.496Z,96268
2023-03-16T07:38:20.558Z,96273
2023-03-16T07:39:20.602Z,96269
2023-03-16T07:40:20.621Z,96270
2023-03-16T07:41:20.594Z,96270
2023-03-16T07:42:20.565Z,96271
2023-03-16T07:43:20.608Z,96272
2023-03-16T07:44:20.591Z,96272
2023-03-16T07:45:20.571Z,96272
2023-03-16T07:46:20.630Z,96272
2023-03-16T07:47:20.612Z,96272
2023-03-16T07:48:20.610Z,96272
2023-03-16T07:49:20.582Z,96275
2023-03-16T07:50:20.612Z,96277
2023-03-16T07:51:20.599Z,96280
2023-03-16T07:52:20.569Z,96282
2023-03-16T07:53:20.571Z,96282
2023-03-16T07:54:20.585Z,96276
2023-03-16T07:55:20.589Z,96276
2023-03-16T07:56:20.596Z,96273
2023-03-16T07:57:20.598Z,96276
2023-03-16T07:58:20.648Z,96275
2023-03-16T07:59:21.057Z,96270
2023-03-16T08:00:20.656Z,96274
2023-03-16T08:01:20.604Z,96270
2023-03-16T08:02:20.676Z,96270
2023-03-16T08:03:20.706Z,96265
2023-03-16T08:04:20.620Z,96265
2023-03-16T08:05:20.652Z,96256
2023-03-16T08:06:20.636Z,96254
2023-03-16T08:07:20.691Z,96250
2023-03-16T08:08:20.697Z,96248
2023-03-16T08:09:20.620Z,96248
2023-03-16T08:10:20.663Z,96241
2023-03-16T08:11:20.683Z,96244
2023-03-16T08:12:20.672Z,96240
2023-03-16T08:13:20.713Z,96235
2023-03-16T08:14:20.728Z,96235
2023-03-16T08:15:20.685Z,96240
2023-03-16T08:16:22.063Z,96239
2023-03-16T08:17:20.642Z,96239
2023-03-16T08:18:20.650Z,96238
2023-03-16T08:19:20.694Z,96244
2023-03-16T08:20:20.701Z,96244
2023-03-16T08:21:20.744Z,96244
2023-03-16T08:22:20.697Z,96244
2023-03-16T08:23:20.717Z,96239
2023-03-16T08:24:20.704Z,96239
2023-03-16T08:25:20.738Z,96244
2023-03-16T08:26:20.749Z,96245
2023-03-16T08:27:20.696Z,96245
2023-03-16T08:28:20.700Z,96244
2023-03-16T08:29:20.747Z,96244
2023-03-16T08:30:20.695Z,96234
2023-03-16T08:31:20.725Z,96240
2023-03-16T08:32:20.691Z,96240
2023-03-16T08:33:23.027Z,96235
2023-03-16T08:34:20.723Z,96238
2023-03-16T08:35:20.757Z,96227
2023-03-16T08:36:20.743Z,96227
2023-03-16T08:37:20.721Z,96213
2023-03-16T08:38:20.696Z,96205
2023-03-16T08:39:20.748Z,96205
2023-03-16T08:40:20.718Z,96199
2023-03-16T08:41:20.725Z,96202
2023-03-16T08:42:20.787Z,96203
2023-03-16T08:43:20.726Z,96203
2023-03-16T08:44:20.769Z,96197
2023-03-16T08:45:20.854Z,96200
2023-03-16T08:46:20.814Z,96202
2023-03-16T08:47:20.796Z,96209
2023-03-16T08:48:20.764Z,96206
2023-03-16T08:49:20.728Z,96209
2023-03-16T08:50:20.738Z,96214
2023-03-16T08:51:20.794Z,96215
2023-03-16T08:52:20.822Z,96215
2023-03-16T08:53:20.740Z,96215
2023-03-16T08:54:20.767Z,96216
2023-03-16T08:55:20.747Z,96222
2023-03-16T08:57:20.793Z,96216
2023-03-16T08:58:20.797Z,96216
2023-03-16T08:59:29.782Z,96216
2023-03-16T09:00:20.846Z,96217
2023-03-16T09:01:20.844Z,96222
2023-03-16T09:02:20.808Z,96217
2023-03-16T09:03:20.803Z,96213
2023-03-16T09:04:20.873Z,96212
2023-03-16T09:05:20.809Z,96214
2023-03-16T09:06:20.818Z,96214
2023-03-16T09:07:20.876Z,96215
2023-03-16T09:08:21.006Z,96218
2023-03-16T09:09:20.788Z,96226
2023-03-16T09:10:20.783Z,96225
2023-03-16T09:11:20.825Z,96219
2023-03-16T09:12:20.828Z,96227
2023-03-16T09:13:20.868Z,96224
2023-03-16T09:14:20.802Z,96221
2023-03-16T09:15:20.843Z,96222
2023-03-16T09:16:21.008Z,96223
2023-03-16T09:17:20.805Z,96221
2023-03-16T09:18:20.847Z,96214
2023-03-16T09:19:20.807Z,96214
2023-03-16T09:20:26.189Z,96214
2023-03-16T09:21:20.850Z,96213
2023-03-16T09:22:20.847Z,96218
2023-03-16T09:23:20.861Z,96222
2023-03-16T09:24:20.855Z,96224
2023-03-16T09:25:20.868Z,96226
2023-03-16T09:26:20.867Z,96224
2023-03-16T09:27:21.023Z,96228
2023-03-16T09:28:22.110Z,96228
2023-03-16T09:29:20.829Z,96230
2023-03-16T09:30:20.853Z,96225
2023-03-16T09:31:20.893Z,96223
2023-03-16T09:32:20.864Z,96218
2023-03-16T09:33:20.843Z,96218
2023-03-16T09:34:20.868Z,96212
2023-03-16T09:35:20.866Z,96216
2023-03-16T09:36:21.017Z,96213
2023-03-16T09:37:22.082Z,96207
2023-03-16T09:38:20.918Z,96206
2023-03-16T09:39:20.857Z,96204
2023-03-16T09:40:20.877Z,96199
2023-03-16T09:41:20.893Z,96196
2023-03-16T09:42:20.911Z,96194
2023-03-16T09:43:20.865Z,96189
2023-03-16T09:44:20.895Z,96185
2023-03-16T09:45:20.881Z,96182
2023-03-16T09:46:20.959Z,96188
2023-03-16T09:47:20.893Z,96185
2023-03-16T09:48:20.917Z,96180
2023-03-16T09:49:20.890Z,96183
2023-03-16T09:50:20.897Z,96180
2023-03-16T09:51:21.038Z,96187
2023-03-16T09:52:20.899Z,96189
2023-03-16T09:53:20.915Z,96193
2023-03-16T09:54:20.922Z,96192
2023-03-16T09:55:20.908Z,96189
2023-03-16T09:56:20.919Z,96192
2023-03-16T09:57:20.963Z,96188
2023-03-16T09:58:20.904Z,96188
2023-03-16T09:59:20.995Z,96182
2023-03-16T10:00:20.965Z,96182
2023-03-16T10:01:21.044Z,96182
2023-03-16T10:02:20.952Z,96179
2023-03-16T10:03:20.963Z,96179
2023-03-16T10:04:21.014Z,96178
2023-03-16T10:05:20.954Z,96178
2023-03-16T10:06:20.964Z,96186
2023-03-16T10:07:20.967Z,96184
2023-03-16T10:08:20.971Z,96184
2023-03-16T10:09:20.968Z,96182
2023-03-16T10:10:20.968Z,96178
2023-03-16T10:11:20.988Z,96178
2023-03-16T10:12:21.084Z,96178
2023-03-16T10:13:22.119Z,96173
2023-03-16T10:14:20.989Z,96174
2023-03-16T10:15:21.068Z,96171
2023-03-16T10:16:21.058Z,96164
2023-03-16T10:17:21.229Z,96159
2023-03-16T10:18:20.977Z,96159
2023-03-16T10:19:20.997Z,96160
2023-03-16T10:20:20.995Z,96158
2023-03-16T10:21:20.972Z,96161
2023-03-16T10:22:21.051Z,96159
2023-03-16T10:23:20.997Z,96156
2023-03-16T10:24:20.984Z,96156
2023-03-16T10:25:21.023Z,96154
2023-03-16T10:27:21.045Z,96145
2023-03-16T10:28:21.052Z,96147
2023-03-16T10:29:21.004Z,96144
2023-03-16T10:30:21.061Z,96143
2023-03-16T10:31:21.076Z,96146
2023-03-16T10:33:21.041Z,96145
2023-03-16T10:34:21.026Z,96147
2023-03-16T10:35:21.050Z,96143
2023-03-16T10:36:21.020Z,96140
2023-03-16T10:37:21.057Z,96140
2023-03-16T10:38:21.047Z,96138
2023-03-16T10:39:21.033Z,96133
2023-03-16T10:40:21.140Z,96135
2023-03-16T10:41:21.066Z,96141
2023-03-16T10:42:21.112Z,96139
2023-03-16T10:43:21.087Z,96138
2023-03-16T10:44:21.028Z,96138
2023-03-16T10:45:21.077Z,96136
2023-03-16T10:46:21.107Z,96142
2023-03-16T10:47:21.228Z,96140
2023-03-16T10:49:21.082Z,96140
2023-03-16T10:50:21.194Z,96140
2023-03-16T10:51:21.063Z,96131
2023-03-16T10:52:21.082Z,96128
2023-03-16T10:53:21.207Z,96126
2023-03-16T10:54:21.070Z,96123
2023-03-16T10:55:21.083Z,96121
2023-03-16T10:56:21.108Z,96119
2023-03-16T10:57:21.098Z,96114
2023-03-16T10:58:21.064Z,96112
2023-03-16T10:59:21.075Z,96110
2023-03-16T11:00:21.139Z,96112
2023-03-16T11:01:21.128Z,96113
2023-03-16T11:03:21.087Z,96112
2023-03-16T11:04:21.221Z,96110
2023-03-16T11:05:21.115Z,96105
2023-03-16T11:06:21.100Z,96104
2023-03-16T11:07:21.148Z,96109
2023-03-16T11:08:21.097Z,96109
2023-03-16T11:09:21.095Z,96110
2023-03-16T11:10:21.138Z,96103
2023-03-16T11:11:21.104Z,96106
2023-03-16T11:12:21.115Z,96106
2023-03-16T11:13:21.170Z,96107
2023-03-16T11:14:21.119Z,96107
2023-03-16T11:15:25.822Z,96103
2023-03-16T11:18:21.201Z,96105
2023-03-16T11:19:21.150Z,96108
2023-03-16T11:20:21.161Z,96106
2023-03-16T11:21:21.171Z,96106
2023-03-16T11:22:21.161Z,96109
2023-03-16T11:23:21.215Z,96106
2023-03-16T11:24:21.180Z,96108
2023-03-16T11:25:21.148Z,96105
2023-03-16T11:26:21.198Z,96097
2023-03-16T11:27:21.199Z,96103
2023-03-16T11:28:21.139Z,96103
2023-03-16T11:29:21.192Z,96103
2023-03-16T11:30:21.195Z,96105
2023-03-16T11:31:21.221Z,96105
2023-03-16T11:32:21.188Z,96114
2023-03-16T11:33:21.161Z,96114
2023-03-16T11:34:21.189Z,96112
2023-03-16T11:35:21.200Z,96113
2023-03-16T11:36:21.306Z,96112
2023-03-16T11:37:21.181Z,96107
2023-03-16T11:38:21.236Z,96103
2023-03-16T11:39:21.170Z,96103
2023-03-16T11:40:21.197Z,96105
2023-03-16T11:41:21.231Z,96103
2023-03-16T11:42:21.223Z,96104
2023-03-16T11:43:21.194Z,96098
2023-03-16T11:44:21.196Z,96102
2023-03-16T11:45:21.218Z,96097
2023-03-16T11:46:21.384Z,96097
2023-03-16T11:47:21.204Z,96095
2023-03-16T11:48:21.266Z,96092
2023-03-16T11:49:21.287Z,96089
2023-03-16T11:50:21.236Z,96089
2023-03-16T11:51:21.251Z,96087
2023-03-16T11:52:21.256Z,96088
2023-03-16T11:53:21.252Z,96084
2023-03-16T11:54:21.211Z,96085
2023-03-16T11:55:21.211Z,96085
2023-03-16T11:56:21.261Z,96075
2023-03-16T11:57:21.213Z,96075
2023-03-16T11:58:21.260Z,96075
2023-03-16T11:59:21.234Z,96071
2023-03-16T12:00:21.314Z,96075
2023-03-16T12:01:21.325Z,96073
2023-03-16T12:02:21.384Z,96074
2023-03-16T12:03:21.280Z,96079
2023-03-16T12:04:21.272Z,96081
2023-03-16T12:05:21.246Z,96082
2023-03-16T12:06:23.459Z,96080
2023-03-16T12:07:21.270Z,96082
2023-03-16T12:08:21.238Z,96082
2023-03-16T12:09:21.279Z,96078
2023-03-16T12:11:21.299Z,96076
2023-03-16T12:12:21.253Z,96076
2023-03-16T12:13:21.248Z,96076
2023-03-16T12:14:21.272Z,96077
2023-03-16T12:15:21.338Z,96077
2023-03-16T12:16:21.352Z,96069
2023-03-16T12:17:21.312Z,96070
2023-03-16T12:18:21.404Z,96069
2023-03-16T12:19:21.301Z,96069
2023-03-16T12:20:21.309Z,96071
2023-03-16T12:21:21.275Z,96065
2023-03-16T12:22:21.294Z,96065
2023-03-16T12:24:21.312Z,96062
2023-03-16T12:25:21.327Z,96059
2023-03-16T12:26:21.326Z,96052
2023-03-16T12:27:21.322Z,96052
2023-03-16T12:28:21.337Z,96050
2023-03-16T12:29:21.323Z,96053
2023-03-16T12:30:21.346Z,96054
2023-03-16T12:31:21.357Z,96050
2023-03-16T12:32:21.355Z,96047
2023-03-16T12:33:21.412Z,96047
2023-03-16T12:34:21.393Z,96044
2023-03-16T12:36:21.331Z,96045
2023-03-16T12:37:21.315Z,96040
2023-03-16T12:39:21.318Z,96037
2023-03-16T12:40:21.360Z,96042
2023-03-16T12:41:21.356Z,96037
2023-03-16T12:42:21.350Z,96041
2023-03-16T12:43:21.386Z,96038
2023-03-16T12:44:21.487Z,96042
2023-03-16T12:45:21.352Z,96045
2023-03-16T12:46:21.463Z,96041
2023-03-16T12:47:21.330Z,96041
2023-03-16T12:48:21.399Z,96040
2023-03-16T12:49:21.335Z,96040
2023-03-16T12:50:21.355Z,96040
2023-03-16T12:51:21.390Z,96040
2023-03-16T12:52:21.371Z,96036
2023-03-16T12:53:21.351Z,96034
2023-03-16T12:54:21.448Z,96033
2023-03-16T12:56:21.368Z,96029
2023-03-16T12:57:21.409Z,96025
2023-03-16T12:58:21.423Z,96025
2023-03-16T12:59:21.432Z,96026
2023-03-16T13:00:21.406Z,96021
2023-03-16T13:01:21.526Z,96024
2023-03-16T13:02:21.359Z,96024
2023-03-16T13:03:21.473Z,96019
2023-03-16T13:04:21.575Z,96022
2023-03-16T13:05:21.389Z,96021
2023-03-16T13:06:21.397Z,96022
2023-03-16T13:08:21.440Z,96019
2023-03-16T13:09:21.474Z,96018
2023-03-16T13:10:21.429Z,96022
2023-03-16T13:11:21.448Z,96018
2023-03-16T13:12:21.485Z,96021
2023-03-16T13:13:21.459Z,96017
2023-03-16T13:16:21.507Z,96013
2023-03-16T13:17:21.473Z,96013
2023-03-16T13:18:21.456Z,96017
2023-03-16T13:19:21.464Z,96016
2023-03-16T13:20:30.314Z,96013
2023-03-16T13:21:21.461Z,96011
2023-03-16T13:23:21.511Z,96011
2023-03-16T13:24:21.449Z,96013
2023-03-16T13:25:21.440Z,96010
2023-03-16T13:26:21.443Z,96009
2023-03-16T13:27:21.476Z,96006
2023-03-16T13:28:21.471Z,96007
2023-03-16T13:29:21.499Z,96010
2023-03-16T13:30:21.586Z,96010
2023-03-16T13:31:21.526Z,96010
2023-03-16T13:32:21.486Z,96010
2023-03-16T13:33:21.498Z,96008
2023-03-16T13:34:21.696Z,96007
2023-03-16T13:35:21.508Z,96008
2023-03-16T13:36:21.468Z,96007
2023-03-16T13:38:21.524Z,96006
2023-03-16T13:39:21.506Z,96006
2023-03-16T13:40:21.575Z,96005
2023-03-16T13:41:21.488Z,96007
2023-03-16T13:42:21.502Z,96009
2023-03-16T13:43:21.491Z,96009
2023-03-16T13:44:21.547Z,96005
2023-03-16T13:45:21.533Z,96003
2023-03-16T13:46:21.573Z,96001
2023-03-16T13:47:21.506Z,96001
2023-03-16T13:48:21.545Z,96000
2023-03-16T13:49:21.505Z,95997
2023-03-16T13:50:21.536Z,95997
2023-03-16T13:51:21.550Z,95995
2023-03-16T13:52:21.576Z,95994
2023-03-16T13:53:21.548Z,95993
2023-03-16T13:54:21.564Z,95993
2023-03-16T13:55:21.560Z,95993
2023-03-16T13:56:21.538Z,95988
2023-03-16T13:57:21.518Z,95987
2023-03-16T13:58:21.589Z,95988
2023-03-16T13:59:21.581Z,95984
2023-03-16T14:00:21.599Z,95982
2023-03-16T14:01:21.720Z,95978
2023-03-16T14:02:21.716Z,95981
2023-03-16T14:03:21.604Z,95981
2023-03-16T14:04:21.556Z,95979
2023-03-16T14:05:21.582Z,95978
2023-03-16T14:06:21.579Z,95977
2023-03-16T14:07:21.594Z,95975
2023-03-16T14:08:21.633Z,95972
2023-03-16T14:09:21.625Z,95972
2023-03-16T14:10:21.605Z,95970
2023-03-16T14:11:21.579Z,95970
2023-03-16T14:12:21.559Z,95967
2023-03-16T14:13:21.567Z,95970
2023-03-16T14:14:21.609Z,95965
2023-03-16T14:15:21.589Z,95964
2023-03-16T14:16:21.700Z,95963
2023-03-16T14:17:21.586Z,95963
2023-03-16T14:18:21.739Z,95964
2023-03-16T14:19:42.306Z,95964
2023-03-16T14:20:21.578Z,95965
2023-03-16T14:21:21.617Z,95962
2023-03-16T14:22:21.574Z,95962
2023-03-16T14:23:21.628Z,95964
2023-03-16T14:24:21.645Z,95963
2023-03-16T14:25:21.645Z,95963
2023-03-16T14:26:21.623Z,95960